sensor_id;sensor_type;location;lat;lon;timestamp;pressure;altitude;pressure_sealevel;temperature;humidity
6136;BME280;24008;42.664;23.372;2022-12-19T00:01:09;96463.78;;;0.60;78.37
6136;BME280;24008;42.664;23.372;2022-12-19T00:03:41;96470.50;;;0.60;77.90
6136;BME280;24008;42.664;23.372;2022-12-19T00:06:10;96435.91;;;0.34;77.98
6136;BME280;24008;42.664;23.372;2022-12-19T00:08:37;96435.09;;;0.33;78.69
6136;BME280;24008;42.664;23.372;2022-12-19T00:11:03;96467.91;;;0.61;79.08
6136;BME280;24008;42.664;23.372;2022-12-19T00:13:31;96474.59;;;0.62;79.06
6136;BME280;24008;42.664;23.372;2022-12-19T00:16:02;96335.59;;;-0.11;79.04
6136;BME280;24008;42.664;23.372;2022-12-19T00:18:29;96471.16;;;0.66;79.24
6136;BME280;24008;42.664;23.372;2022-12-19T00:20:58;96463.53;;;0.69;78.84
6136;BME280;24008;42.664;23.372;2022-12-19T00:23:30;96479.56;;;0.65;78.98
6136;BME280;24008;42.664;23.372;2022-12-19T00:26:06;96477.06;;;0.65;79.57
6136;BME280;24008;42.664;23.372;2022-12-19T00:28:33;96382.19;;;0.03;79.55
6136;BME280;24008;42.664;23.372;2022-12-19T00:31:00;96479.56;;;0.65;79.59
6136;BME280;24008;42.664;23.372;2022-12-19T00:33:27;96340.78;;;-0.17;79.66
6136;BME280;24008;42.664;23.372;2022-12-19T00:35:56;96479.56;;;0.65;79.95
6136;BME280;24008;42.664;23.372;2022-12-19T00:38:23;96384.66;;;0.04;80.21
6136;BME280;24008;42.664;23.372;2022-12-19T00:40:52;96459.81;;;0.50;80.44
6136;BME280;24008;42.664;23.372;2022-12-19T00:43:31;96507.22;;;0.67;80.61
6136;BME280;24008;42.664;23.372;2022-12-19T00:45:57;96444.16;;;0.39;80.29
6136;BME280;24008;42.664;23.372;2022-12-19T00:48:27;96483.00;;;0.61;80.12
6136;BME280;24008;42.664;23.372;2022-12-19T00:50:58;96431.88;;;0.27;80.42
6136;BME280;24008;42.664;23.372;2022-12-19T00:53:24;96484.81;;;0.58;80.41
6136;BME280;24008;42.664;23.372;2022-12-19T00:55:53;96455.06;;;0.38;80.28
6136;BME280;24008;42.664;23.372;2022-12-19T00:58:20;96424.72;;;0.12;80.75
6136;BME280;24008;42.664;23.372;2022-12-19T01:00:47;96377.63;;;-0.16;80.73
6136;BME280;24008;42.664;23.372;2022-12-19T01:03:14;96389.03;;;-0.03;80.54
6136;BME280;24008;42.664;23.372;2022-12-19T01:05:41;96484.78;;;0.59;80.92
6136;BME280;24008;42.664;23.372;2022-12-19T01:08:08;96450.88;;;0.39;80.98
6136;BME280;24008;42.664;23.372;2022-12-19T01:10:35;96492.22;;;0.62;81.01
6136;BME280;24008;42.664;23.372;2022-12-19T01:13:03;96493.97;;;0.60;80.49
6136;BME280;24008;42.664;23.372;2022-12-19T01:15:29;96490.69;;;0.57;81.07
6136;BME280;24008;42.664;23.372;2022-12-19T01:17:56;96500.78;;;0.55;81.29
6136;BME280;24008;42.664;23.372;2022-12-19T01:20:22;96362.28;;;-0.41;81.04
6136;BME280;24008;42.664;23.372;2022-12-19T01:22:49;96502.53;;;0.52;81.55
6136;BME280;24008;42.664;23.372;2022-12-19T01:25:16;96498.34;;;0.52;81.78
6136;BME280;24008;42.664;23.372;2022-12-19T01:27:43;96443.88;;;0.16;81.82
6136;BME280;24008;42.664;23.372;2022-12-19T01:30:12;96504.06;;;0.59;82.07
6136;BME280;24008;42.664;23.372;2022-12-19T01:32:39;96437.44;;;0.06;81.84
6136;BME280;24008;42.664;23.372;2022-12-19T01:35:06;96509.13;;;0.57;82.04
6136;BME280;24008;42.664;23.372;2022-12-19T01:37:33;96502.41;;;0.58;82.23
6136;BME280;24008;42.664;23.372;2022-12-19T01:40:00;96496.50;;;0.60;82.11
6136;BME280;24008;42.664;23.372;2022-12-19T01:42:33;96272.84;;;-0.83;81.80
6136;BME280;24008;42.664;23.372;2022-12-19T01:45:27;96498.09;;;0.61;82.17
6136;BME280;24008;42.664;23.372;2022-12-19T01:48:00;96499.75;;;0.62;82.67
6136;BME280;24008;42.664;23.372;2022-12-19T01:50:32;96493.84;;;0.65;82.75
6136;BME280;24008;42.664;23.372;2022-12-19T01:53:00;96486.94;;;0.38;82.51
6136;BME280;24008;42.664;23.372;2022-12-19T01:55:28;96497.25;;;0.62;82.51
6136;BME280;24008;42.664;23.372;2022-12-19T01:57:56;96402.16;;;0.09;82.21
6136;BME280;24008;42.664;23.372;2022-12-19T02:00:26;96371.00;;;-0.20;82.20
6136;BME280;24008;42.664;23.372;2022-12-19T02:02:58;96484.03;;;0.54;82.48
6136;BME280;24008;42.664;23.372;2022-12-19T02:05:26;96491.59;;;0.54;82.33
6136;BME280;24008;42.664;23.372;2022-12-19T02:07:53;96417.25;;;0.09;82.74
6136;BME280;24008;42.664;23.372;2022-12-19T02:10:20;96493.31;;;0.52;82.91
6136;BME280;24008;42.664;23.372;2022-12-19T02:12:47;96424.00;;;0.07;82.66
6136;BME280;24008;42.664;23.372;2022-12-19T02:15:14;96491.75;;;0.48;83.01
6136;BME280;24008;42.664;23.372;2022-12-19T02:17:56;96516.81;;;0.51;82.97
6136;BME280;24008;42.664;23.372;2022-12-19T02:24:06;96481.88;;;0.39;82.50
6136;BME280;24008;42.664;23.372;2022-12-19T02:27:04;96507.03;;;0.39;82.79
6136;BME280;24008;42.664;23.372;2022-12-19T02:30:01;96491.13;;;0.39;83.14
6136;BME280;24008;42.664;23.372;2022-12-19T02:32:35;96464.06;;;0.13;83.33
6136;BME280;24008;42.664;23.372;2022-12-19T02:35:13;96509.66;;;0.36;83.65
6136;BME280;24008;42.664;23.372;2022-12-19T02:37:47;96507.91;;;0.38;83.67
6136;BME280;24008;42.664;23.372;2022-12-19T02:40:19;96464.06;;;0.13;83.67
6136;BME280;24008;42.664;23.372;2022-12-19T02:42:50;96476.41;;;0.23;83.74
6136;BME280;24008;42.664;23.372;2022-12-19T02:45:21;96507.03;;;0.39;83.54
6136;BME280;24008;42.664;23.372;2022-12-19T02:47:52;96504.47;;;0.42;83.72
6136;BME280;24008;42.664;23.372;2022-12-19T02:50:19;96386.25;;;-0.26;83.55
6136;BME280;24008;42.664;23.372;2022-12-19T02:52:47;96511.88;;;0.48;83.64
6136;BME280;24008;42.664;23.372;2022-12-19T02:55:19;96504.34;;;0.48;83.92
6136;BME280;24008;42.664;23.372;2022-12-19T02:57:56;96518.47;;;0.52;84.06
6136;BME280;24008;42.664;23.372;2022-12-19T03:00:25;96493.28;;;0.54;84.09
6136;BME280;24008;42.664;23.372;2022-12-19T03:02:59;96494.16;;;0.51;83.67
6136;BME280;24008;42.664;23.372;2022-12-19T03:05:37;96489.94;;;0.53;83.77
6136;BME280;24008;42.664;23.372;2022-12-19T03:08:10;96490.00;;;0.50;83.59
6136;BME280;24008;42.664;23.372;2022-12-19T03:10:43;96442.03;;;0.24;83.69
6136;BME280;24008;42.664;23.372;2022-12-19T03:13:15;96472.41;;;0.49;83.92
6136;BME280;24008;42.664;23.372;2022-12-19T03:15:45;96460.34;;;0.29;83.22
6136;BME280;24008;42.664;23.372;2022-12-19T03:18:13;96483.47;;;0.43;83.63
6136;BME280;24008;42.664;23.372;2022-12-19T03:20:44;96467.88;;;0.29;83.84
6136;BME280;24008;42.664;23.372;2022-12-19T03:23:14;96371.47;;;-0.40;84.09
6136;BME280;24008;42.664;23.372;2022-12-19T03:25:44;96480.09;;;0.44;83.46
6136;BME280;24008;42.664;23.372;2022-12-19T03:28:18;96483.47;;;0.43;83.06
6136;BME280;24008;42.664;23.372;2022-12-19T03:30:48;96483.44;;;0.45;82.95
6136;BME280;24008;42.664;23.372;2022-12-19T03:33:18;96425.06;;;-0.02;83.03
6136;BME280;24008;42.664;23.372;2022-12-19T03:35:47;96364.78;;;-0.39;82.95
6136;BME280;24008;42.664;23.372;2022-12-19T03:38:17;96505.19;;;0.47;83.32
6136;BME280;24008;42.664;23.372;2022-12-19T03:40:46;96473.00;;;0.24;83.26
6136;BME280;24008;42.664;23.372;2022-12-19T03:43:15;96504.34;;;0.48;82.90
6136;BME280;24008;42.664;23.372;2022-12-19T03:45:51;96442.47;;;0.06;82.72
6136;BME280;24008;42.664;23.372;2022-12-19T03:48:30;96435.06;;;-0.01;82.77
6136;BME280;24008;42.664;23.372;2022-12-19T03:51:08;96482.22;;;0.25;83.24
6136;BME280;24008;42.664;23.372;2022-12-19T03:53:44;96427.00;;;-0.13;83.17
6136;BME280;24008;42.664;23.372;2022-12-19T03:56:16;96256.16;;;-1.21;83.31
6136;BME280;24008;42.664;23.372;2022-12-19T03:58:51;96519.56;;;0.42;83.53
6136;BME280;24008;42.664;23.372;2022-12-19T04:01:21;96522.94;;;0.41;83.09
6136;BME280;24008;42.664;23.372;2022-12-19T04:03:51;96444.47;;;-0.09;82.72
6136;BME280;24008;42.664;23.372;2022-12-19T04:06:18;96536.34;;;0.42;82.66
6136;BME280;24008;42.664;23.372;2022-12-19T04:08:45;96460.31;;;-0.05;82.88
6136;BME280;24008;42.664;23.372;2022-12-19T04:11:17;96321.81;;;-1.02;82.65
6136;BME280;24008;42.664;23.372;2022-12-19T04:13:48;96547.50;;;0.30;82.41
6136;BME280;24008;42.664;23.372;2022-12-19T04:16:19;96474.69;;;-0.12;82.40
6136;BME280;24008;42.664;23.372;2022-12-19T04:18:55;96536.84;;;0.19;82.72
6136;BME280;24008;42.664;23.372;2022-12-19T04:21:27;96489.25;;;-0.26;82.95
6136;BME280;24008;42.664;23.372;2022-12-19T04:24:02;96554.66;;;0.10;83.06
6136;BME280;24008;42.664;23.372;2022-12-19T04:26:31;96523.44;;;-0.19;83.34
6136;BME280;24008;42.664;23.372;2022-12-19T04:29:02;96555.63;;;0.04;83.40
6136;BME280;24008;42.664;23.372;2022-12-19T04:31:29;96549.69;;;0.07;83.85
6136;BME280;24008;42.664;23.372;2022-12-19T04:33:58;96545.50;;;0.07;83.94
6136;BME280;24008;42.664;23.372;2022-12-19T04:36:24;96535.41;;;0.09;83.76
6136;BME280;24008;42.664;23.372;2022-12-19T04:38:51;96541.16;;;0.14;84.01
6136;BME280;24008;42.664;23.372;2022-12-19T04:41:18;96512.38;;;-0.12;84.29
6136;BME280;24008;42.664;23.372;2022-12-19T04:43:45;96543.00;;;0.06;83.38
6136;BME280;24008;42.664;23.372;2022-12-19T04:46:12;96127.81;;;-2.62;83.28
6136;BME280;24008;42.664;23.372;2022-12-19T04:48:39;96483.50;;;-0.31;83.19
6136;BME280;24008;42.664;23.372;2022-12-19T04:51:07;96561.47;;;0.05;83.32
6136;BME280;24008;42.664;23.372;2022-12-19T04:53:34;96442.41;;;-0.68;83.31
6136;BME280;24008;42.664;23.372;2022-12-19T04:56:01;96466.84;;;-0.75;82.96
6136;BME280;24008;42.664;23.372;2022-12-19T04:58:28;96553.09;;;0.04;83.13
6136;BME280;24008;42.664;23.372;2022-12-19T05:00:59;96327.59;;;-1.40;83.83
6136;BME280;24008;42.664;23.372;2022-12-19T05:03:26;96560.69;;;0.01;83.55
6136;BME280;24008;42.664;23.372;2022-12-19T05:05:53;96478.09;;;-0.53;83.44
6136;BME280;24008;42.664;23.372;2022-12-19T05:08:29;96522.81;;;-0.28;83.58
6136;BME280;24008;42.664;23.372;2022-12-19T05:10:58;96570.00;;;-0.03;83.70
6136;BME280;24008;42.664;23.372;2022-12-19T05:13:25;96560.91;;;-0.08;83.65
6136;BME280;24008;42.664;23.372;2022-12-19T05:15:55;96560.03;;;-0.07;83.93
6136;BME280;24008;42.664;23.372;2022-12-19T05:18:22;96570.16;;;-0.10;83.74
6136;BME280;24008;42.664;23.372;2022-12-19T05:20:48;96573.59;;;-0.13;84.09
6136;BME280;24008;42.664;23.372;2022-12-19T05:23:15;96561.06;;;-0.16;84.54
6136;BME280;24008;42.664;23.372;2022-12-19T05:25:43;96566.91;;;-0.14;84.59
6136;BME280;24008;42.664;23.372;2022-12-19T05:28:10;96450.56;;;-0.99;84.75
6136;BME280;24008;42.664;23.372;2022-12-19T05:30:37;96567.03;;;-0.21;84.98
6136;BME280;24008;42.664;23.372;2022-12-19T05:33:04;96569.53;;;-0.20;85.45
6136;BME280;24008;42.664;23.372;2022-12-19T05:35:32;96567.88;;;-0.21;85.45
6136;BME280;24008;42.664;23.372;2022-12-19T05:37:58;96539.78;;;-0.40;85.85
6136;BME280;24008;42.664;23.372;2022-12-19T05:40:26;96565.31;;;-0.19;85.16
6136;BME280;24008;42.664;23.372;2022-12-19T05:42:54;96527.31;;;-0.44;85.01
6136;BME280;24008;42.664;23.372;2022-12-19T05:45:21;96495.00;;;-0.61;84.80
6136;BME280;24008;42.664;23.372;2022-12-19T05:47:48;96578.56;;;-0.11;85.16
6136;BME280;24008;42.664;23.372;2022-12-19T05:50:16;96491.09;;;-0.76;84.86
6136;BME280;24008;42.664;23.372;2022-12-19T05:52:43;96464.22;;;-0.70;84.23
6136;BME280;24008;42.664;23.372;2022-12-19T05:55:10;96567.34;;;0.04;84.82
6136;BME280;24008;42.664;23.372;2022-12-19T05:57:36;96498.91;;;-0.48;84.36
6136;BME280;24008;42.664;23.372;2022-12-19T06:00:06;96579.81;;;0.10;84.21
6136;BME280;24008;42.664;23.372;2022-12-19T06:02:33;96580.56;;;0.13;84.03
6136;BME280;24008;42.664;23.372;2022-12-19T06:05:00;96449.09;;;-0.67;83.76
6136;BME280;24008;42.664;23.372;2022-12-19T06:07:27;96514.28;;;-0.23;83.66
6136;BME280;24008;42.664;23.372;2022-12-19T06:09:54;96582.22;;;0.13;82.92
6136;BME280;24008;42.664;23.372;2022-12-19T06:12:21;96554.84;;;0.00;82.94
6136;BME280;24008;42.664;23.372;2022-12-19T06:14:47;96585.41;;;0.22;82.70
6136;BME280;24008;42.664;23.372;2022-12-19T06:17:15;96505.25;;;-0.30;82.19
6136;BME280;24008;42.664;23.372;2022-12-19T06:19:43;96588.63;;;0.27;82.37
6136;BME280;24008;42.664;23.372;2022-12-19T06:22:10;96593.72;;;0.24;81.16
6136;BME280;24008;42.664;23.372;2022-12-19T06:24:36;96592.13;;;0.22;81.60
6136;BME280;24008;42.664;23.372;2022-12-19T06:27:03;96598.84;;;0.21;81.54
6136;BME280;24008;42.664;23.372;2022-12-19T06:29:30;96386.28;;;-1.06;81.03
6136;BME280;24008;42.664;23.372;2022-12-19T06:31:57;96602.88;;;0.27;81.47
6136;BME280;24008;42.664;23.372;2022-12-19T06:34:25;96606.16;;;0.32;80.80
6136;BME280;24008;42.664;23.372;2022-12-19T06:36:52;96516.69;;;-0.17;80.67
6136;BME280;24008;42.664;23.372;2022-12-19T06:39:19;96531.59;;;-0.09;80.15
6136;BME280;24008;42.664;23.372;2022-12-19T06:41:46;96606.91;;;0.35;80.57
6136;BME280;24008;42.664;23.372;2022-12-19T06:44:31;96613.47;;;0.43;80.26
6136;BME280;24008;42.664;23.372;2022-12-19T06:46:58;96283.56;;;-1.54;79.81
6136;BME280;24008;42.664;23.372;2022-12-19T06:49:27;96620.00;;;0.50;79.76
6136;BME280;24008;42.664;23.372;2022-12-19T06:51:54;96532.28;;;-0.01;79.42
6136;BME280;24008;42.664;23.372;2022-12-19T06:54:21;96584.44;;;0.28;79.92
6136;BME280;24008;42.664;23.372;2022-12-19T06:56:47;96625.56;;;0.62;79.30
6136;BME280;24008;42.664;23.372;2022-12-19T06:59:15;96624.81;;;0.60;78.88
6136;BME280;24008;42.664;23.372;2022-12-19T07:01:49;96562.06;;;0.16;79.14
6136;BME280;24008;42.664;23.372;2022-12-19T07:04:22;96644.00;;;0.64;78.38
6136;BME280;24008;42.664;23.372;2022-12-19T07:06:52;96539.03;;;-0.03;78.53
6136;BME280;24008;42.664;23.372;2022-12-19T07:09:18;96590.78;;;0.44;79.20
6136;BME280;24008;42.664;23.372;2022-12-19T07:11:45;96668.06;;;0.76;79.49
6136;BME280;24008;42.664;23.372;2022-12-19T07:14:12;96637.09;;;0.72;78.88
6136;BME280;24008;42.664;23.372;2022-12-19T07:16:40;96606.44;;;0.57;79.01
6136;BME280;24008;42.664;23.372;2022-12-19T07:19:07;96584.91;;;0.45;79.21
6136;BME280;24008;42.664;23.372;2022-12-19T07:21:35;96604.78;;;0.56;78.95
6136;BME280;24008;42.664;23.372;2022-12-19T07:24:03;96464.91;;;-0.24;79.01
6136;BME280;24008;42.664;23.372;2022-12-19T07:26:31;96648.53;;;0.86;78.95
6136;BME280;24008;42.664;23.372;2022-12-19T07:28:59;96407.84;;;-0.57;79.35
6136;BME280;24008;42.664;23.372;2022-12-19T07:31:26;96510.34;;;0.06;79.09
6136;BME280;24008;42.664;23.372;2022-12-19T07:33:53;96608.81;;;0.61;78.74
6136;BME280;24008;42.664;23.372;2022-12-19T07:36:20;96578.16;;;0.47;79.14
6136;BME280;24008;42.664;23.372;2022-12-19T07:38:47;96616.25;;;0.67;79.06
6136;BME280;24008;42.664;23.372;2022-12-19T07:41:16;96653.44;;;0.92;79.02
6136;BME280;24008;42.664;23.372;2022-12-19T07:43:43;96660.06;;;0.96;79.07
6136;BME280;24008;42.664;23.372;2022-12-19T07:46:11;96677.69;;;0.96;79.00
6136;BME280;24008;42.664;23.372;2022-12-19T07:48:38;96455.09;;;-0.34;79.05
6136;BME280;24008;42.664;23.372;2022-12-19T07:51:05;96672.50;;;1.02;78.98
6136;BME280;24008;42.664;23.372;2022-12-19T07:53:32;96644.41;;;0.83;78.48
6136;BME280;24008;42.664;23.372;2022-12-19T07:55:59;96531.91;;;0.16;78.34
6136;BME280;24008;42.664;23.372;2022-12-19T07:58:27;96688.41;;;1.04;78.16
6136;BME280;24008;42.664;23.372;2022-12-19T08:00:55;96588.41;;;0.36;78.44
6136;BME280;24008;42.664;23.372;2022-12-19T08:03:22;96600.25;;;0.33;79.09
6136;BME280;24008;42.664;23.372;2022-12-19T08:05:48;96713.00;;;0.93;79.04
6136;BME280;24008;42.664;23.372;2022-12-19T08:08:15;96708.13;;;0.85;79.24
6136;BME280;24008;42.664;23.372;2022-12-19T08:10:43;96646.25;;;0.38;79.59
6136;BME280;24008;42.664;23.372;2022-12-19T08:13:09;96697.16;;;0.88;79.86
6136;BME280;24008;42.664;23.372;2022-12-19T08:15:38;96694.53;;;0.94;79.92
6136;BME280;24008;42.664;23.372;2022-12-19T08:18:05;96693.75;;;0.90;79.36
6136;BME280;24008;42.664;23.372;2022-12-19T08:20:31;96693.66;;;0.95;79.06
6136;BME280;24008;42.664;23.372;2022-12-19T08:22:58;96598.75;;;0.24;79.21
6136;BME280;24008;42.664;23.372;2022-12-19T08:25:26;96707.06;;;0.95;79.49
6136;BME280;24008;42.664;23.372;2022-12-19T08:27:56;96596.94;;;0.31;79.83
6136;BME280;24008;42.664;23.372;2022-12-19T08:30:23;96705.41;;;0.94;80.09
6136;BME280;24008;42.664;23.372;2022-12-19T08:32:51;96717.91;;;0.97;79.88
6136;BME280;24008;42.664;23.372;2022-12-19T08:35:18;96707.72;;;1.03;80.05
6136;BME280;24008;42.664;23.372;2022-12-19T08:37:45;96672.09;;;0.83;79.18
6136;BME280;24008;42.664;23.372;2022-12-19T08:40:12;96146.69;;;-2.44;79.29
6136;BME280;24008;42.664;23.372;2022-12-19T08:42:39;96666.88;;;0.91;79.28
6136;BME280;24008;42.664;23.372;2022-12-19T08:45:06;96722.59;;;1.13;78.92
6136;BME280;24008;42.664;23.372;2022-12-19T08:47:33;96709.06;;;1.18;78.97
6136;BME280;24008;42.664;23.372;2022-12-19T08:50:02;96700.53;;;1.24;78.67
6136;BME280;24008;42.664;23.372;2022-12-19T08:52:29;96595.03;;;0.42;78.75
6136;BME280;24008;42.664;23.372;2022-12-19T08:54:55;96693.00;;;1.22;78.91
6136;BME280;24008;42.664;23.372;2022-12-19T08:57:22;96437.50;;;-0.34;79.14
6136;BME280;24008;42.664;23.372;2022-12-19T08:59:49;96690.22;;;1.33;78.87
6136;BME280;24008;42.664;23.372;2022-12-19T09:02:16;96615.03;;;0.84;78.94
6136;BME280;24008;42.664;23.372;2022-12-19T09:04:43;96641.41;;;1.03;79.65
6136;BME280;24008;42.664;23.372;2022-12-19T09:07:11;96634.66;;;1.05;79.65
6136;BME280;24008;42.664;23.372;2022-12-19T09:09:38;96682.72;;;1.31;80.02
6136;BME280;24008;42.664;23.372;2022-12-19T09:12:05;96672.47;;;1.37;80.46
6136;BME280;24008;42.664;23.372;2022-12-19T09:14:32;96668.78;;;1.51;80.17
6136;BME280;24008;42.664;23.372;2022-12-19T09:16:59;96670.34;;;1.56;79.85
6136;BME280;24008;42.664;23.372;2022-12-19T09:19:26;96666.88;;;1.59;79.54
6136;BME280;24008;42.664;23.372;2022-12-19T09:21:53;96664.41;;;1.57;79.20
6136;BME280;24008;42.664;23.372;2022-12-19T09:24:21;96552.16;;;0.82;78.70
6136;BME280;24008;42.664;23.372;2022-12-19T09:26:48;96333.25;;;-0.52;78.65
6136;BME280;24008;42.664;23.372;2022-12-19T09:29:15;96653.06;;;1.42;79.29
6136;BME280;24008;42.664;23.372;2022-12-19T09:31:42;96642.00;;;1.47;79.99
6136;BME280;24008;42.664;23.372;2022-12-19T09:34:08;96530.19;;;0.87;79.90
6136;BME280;24008;42.664;23.372;2022-12-19T09:36:35;96486.25;;;0.66;80.48
6136;BME280;24008;42.664;23.372;2022-12-19T09:39:02;96628.94;;;1.65;80.01
6136;BME280;24008;42.664;23.372;2022-12-19T09:44:35;96421.63;;;0.36;79.83
6136;BME280;24008;42.664;23.372;2022-12-19T09:47:10;96627.25;;;1.65;80.14
6136;BME280;24008;42.664;23.372;2022-12-19T09:49:40;96545.22;;;1.23;80.23
6136;BME280;24008;42.664;23.372;2022-12-19T09:52:12;96620.13;;;1.81;80.74
6136;BME280;24008;42.664;23.372;2022-12-19T09:54:43;96549.75;;;1.42;79.46
6136;BME280;24008;42.664;23.372;2022-12-19T09:57:17;96625.84;;;1.86;80.00
6136;BME280;24008;42.664;23.372;2022-12-19T09:59:48;96615.81;;;1.83;79.90
6136;BME280;24008;42.664;23.372;2022-12-19T10:02:25;96574.34;;;1.64;80.64
6136;BME280;24008;42.664;23.372;2022-12-19T10:04:56;96587.81;;;1.63;80.87
6136;BME280;24008;42.664;23.372;2022-12-19T10:07:27;96604.28;;;1.76;82.13
6136;BME280;24008;42.664;23.372;2022-12-19T10:09:55;96577.81;;;1.60;82.20
6136;BME280;24008;42.664;23.372;2022-12-19T10:12:35;96563.59;;;1.57;82.18
6136;BME280;24008;42.664;23.372;2022-12-19T10:15:12;96565.00;;;1.69;82.10
6136;BME280;24008;42.664;23.372;2022-12-19T10:18:00;96587.59;;;2.01;82.36
6136;BME280;24008;42.664;23.372;2022-12-19T10:20:34;96359.47;;;0.72;81.42
6136;BME280;24008;42.664;23.372;2022-12-19T10:23:14;96465.81;;;1.40;81.41
6136;BME280;24008;42.664;23.372;2022-12-19T10:25:58;96583.53;;;2.25;81.08
6136;BME280;24008;42.664;23.372;2022-12-19T10:28:50;96578.50;;;2.25;81.03
6136;BME280;24008;42.664;23.372;2022-12-19T10:31:23;96565.81;;;2.27;81.61
6136;BME280;24008;42.664;23.372;2022-12-19T10:33:57;96559.97;;;2.26;80.97
6136;BME280;24008;42.664;23.372;2022-12-19T10:36:29;96388.38;;;1.18;81.73
6136;BME280;24008;42.664;23.372;2022-12-19T10:39:04;96567.59;;;2.23;81.78
6136;BME280;24008;42.664;23.372;2022-12-19T10:41:31;96504.91;;;1.83;81.90
6136;BME280;24008;42.664;23.372;2022-12-19T10:44:01;96562.28;;;2.32;82.13
6136;BME280;24008;42.664;23.372;2022-12-19T10:46:38;96551.78;;;2.46;81.73
6136;BME280;24008;42.664;23.372;2022-12-19T10:49:10;96463.59;;;1.87;81.43
6136;BME280;24008;42.664;23.372;2022-12-19T10:51:39;96520.41;;;2.27;81.00
6136;BME280;24008;42.664;23.372;2022-12-19T10:54:06;96546.72;;;2.46;81.04
6136;BME280;24008;42.664;23.372;2022-12-19T10:56:35;96549.56;;;2.35;82.11
6136;BME280;24008;42.664;23.372;2022-12-19T10:59:14;96405.25;;;1.43;82.24
6136;BME280;24008;42.664;23.372;2022-12-19T11:01:42;96510.50;;;2.21;82.93
6136;BME280;24008;42.664;23.372;2022-12-19T11:04:14;96454.66;;;1.77;82.86
6136;BME280;24008;42.664;23.372;2022-12-19T11:06:50;96545.44;;;2.33;83.10
6136;BME280;24008;42.664;23.372;2022-12-19T11:09:21;96438.97;;;1.69;83.69
6136;BME280;24008;42.664;23.372;2022-12-19T11:11:50;96546.06;;;2.41;83.15
6136;BME280;24008;42.664;23.372;2022-12-19T11:14:25;96539.94;;;2.48;82.68
6136;BME280;24008;42.664;23.372;2022-12-19T11:16:52;96323.63;;;1.21;82.96
6136;BME280;24008;42.664;23.372;2022-12-19T11:19:21;96540.66;;;2.51;82.88
6136;BME280;24008;42.664;23.372;2022-12-19T11:21:51;96531.41;;;2.52;83.83
6136;BME280;24008;42.664;23.372;2022-12-19T11:24:23;96525.38;;;2.56;84.05
6136;BME280;24008;42.664;23.372;2022-12-19T11:26:51;96542.84;;;2.62;83.60
6136;BME280;24008;42.664;23.372;2022-12-19T11:29:22;96155.75;;;0.40;82.65
6136;BME280;24008;42.664;23.372;2022-12-19T11:31:56;96527.50;;;2.68;81.79
6136;BME280;24008;42.664;23.372;2022-12-19T11:34:26;96547.75;;;2.67;82.45
6136;BME280;24008;42.664;23.372;2022-12-19T11:36:58;96481.13;;;2.18;82.27
6136;BME280;24008;42.664;23.372;2022-12-19T11:39:32;96500.13;;;2.30;83.66
6136;BME280;24008;42.664;23.372;2022-12-19T11:42:05;96532.16;;;2.54;83.65
6136;BME280;24008;42.664;23.372;2022-12-19T11:44:36;96460.19;;;2.16;84.16
6136;BME280;24008;42.664;23.372;2022-12-19T11:47:16;96524.31;;;2.63;83.41
6136;BME280;24008;42.664;23.372;2022-12-19T11:49:50;96447.81;;;2.08;83.23
6136;BME280;24008;42.664;23.372;2022-12-19T11:52:32;96399.63;;;1.91;84.04
6136;BME280;24008;42.664;23.372;2022-12-19T11:55:04;96513.03;;;2.47;82.53
6136;BME280;24008;42.664;23.372;2022-12-19T11:57:33;96343.03;;;1.45;82.34
6136;BME280;24008;42.664;23.372;2022-12-19T12:00:00;96531.09;;;2.61;84.16
6136;BME280;24008;42.664;23.372;2022-12-19T12:05:41;96522.72;;;2.61;84.27
6136;BME280;24008;42.664;23.372;2022-12-19T12:11:17;96420.88;;;1.83;85.59
6136;BME280;24008;42.664;23.372;2022-12-19T12:14:00;96524.09;;;2.43;85.79
6136;BME280;24008;42.664;23.372;2022-12-19T12:16:40;96432.03;;;1.75;85.98
6136;BME280;24008;42.664;23.372;2022-12-19T12:19:18;96430.88;;;1.86;86.02
6136;BME280;24008;42.664;23.372;2022-12-19T12:21:57;96347.56;;;1.34;86.22
6136;BME280;24008;42.664;23.372;2022-12-19T12:24:36;96525.38;;;2.56;86.57
6136;BME280;24008;42.664;23.372;2022-12-19T12:27:19;96521.88;;;2.60;85.82
6136;BME280;24008;42.664;23.372;2022-12-19T12:29:54;96475.81;;;2.27;85.07
6136;BME280;24008;42.664;23.372;2022-12-19T12:32:29;96468.88;;;2.34;83.18
6136;BME280;24008;42.664;23.372;2022-12-19T12:35:06;96503.63;;;2.52;82.97
6136;BME280;24008;42.664;23.372;2022-12-19T12:37:47;96476.44;;;2.34;82.95
6136;BME280;24008;42.664;23.372;2022-12-19T12:40:38;96478.09;;;2.35;82.42
6136;BME280;24008;42.664;23.372;2022-12-19T12:43:19;96318.56;;;1.21;82.15
6136;BME280;24008;42.664;23.372;2022-12-19T12:45:52;96239.13;;;0.55;83.49
6136;BME280;24008;42.664;23.372;2022-12-19T12:48:24;96449.03;;;2.23;83.82
6136;BME280;24008;42.664;23.372;2022-12-19T12:50:54;96455.66;;;2.27;81.69
6136;BME280;24008;42.664;23.372;2022-12-19T12:53:24;96543.13;;;2.79;79.82
6136;BME280;24008;42.664;23.372;2022-12-19T12:55:54;96533.72;;;2.84;78.65
6136;BME280;24008;42.664;23.372;2022-12-19T12:58:43;96537.03;;;2.86;76.53
6136;BME280;24008;42.664;23.372;2022-12-19T13:01:16;96539.59;;;2.85;75.57
6136;BME280;24008;42.664;23.372;2022-12-19T13:03:51;96537.19;;;2.80;75.22
6136;BME280;24008;42.664;23.372;2022-12-19T13:06:24;96532.16;;;2.80;76.16
6136;BME280;24008;42.664;23.372;2022-12-19T13:09:20;96538.94;;;2.78;75.09
6136;BME280;24008;42.664;23.372;2022-12-19T13:11:55;96537.41;;;2.74;75.99
6136;BME280;24008;42.664;23.372;2022-12-19T13:14:45;96550.91;;;2.73;75.23
6136;BME280;24008;42.664;23.372;2022-12-19T13:17:17;96430.31;;;2.04;75.35
6136;BME280;24008;42.664;23.372;2022-12-19T13:19:55;96456.66;;;2.22;74.33
6136;BME280;24008;42.664;23.372;2022-12-19T13:22:39;96540.03;;;2.71;73.90
6136;BME280;24008;42.664;23.372;2022-12-19T13:28:15;96555.31;;;2.67;74.75
6136;BME280;24008;42.664;23.372;2022-12-19T13:31:18;96561.19;;;2.67;74.46
6136;BME280;24008;42.664;23.372;2022-12-19T13:33:55;96583.03;;;2.68;74.66
6136;BME280;24008;42.664;23.372;2022-12-19T13:36:52;96563.72;;;2.67;75.05
6136;BME280;24008;42.664;23.372;2022-12-19T13:39:32;96489.78;;;2.11;74.40
6136;BME280;24008;42.664;23.372;2022-12-19T13:42:11;96561.56;;;2.55;75.29
6136;BME280;24008;42.664;23.372;2022-12-19T13:44:58;96278.09;;;0.71;74.08